sensor_id;sensor_type;location;lat;lon;timestamp;P1;durP1;ratioP1;P2;durP2;ratioP2
20454;SDS011;10386;54.314;10.022;2022-08-01T00:00:05;26.92;;;15.07;;
20454;SDS011;10386;54.314;10.022;2022-08-01T00:02:34;27.37;;;16.20;;
20454;SDS011;10386;54.314;10.022;2022-08-01T00:05:02;28.50;;;16.97;;
20454;SDS011;10386;54.314;10.022;2022-08-01T00:07:29;28.17;;;16.75;;
20454;SDS011;10386;54.314;10.022;2022-08-01T00:09:55;29.40;;;17.33;;
20454;SDS011;10386;54.314;10.022;2022-08-01T00:12:22;27.63;;;16.47;;
20454;SDS011;10386;54.314;10.022;2022-08-01T00:14:49;27.65;;;16.92;;
20454;SDS011;10386;54.314;10.022;2022-08-01T00:17:16;33.23;;;18.50;;
20454;SDS011;10386;54.314;10.022;2022-08-01T00:19:43;34.93;;;18.73;;
20454;SDS011;10386;54.314;10.022;2022-08-01T00:22:09;36.67;;;20.23;;
20454;SDS011;10386;54.314;10.022;2022-08-01T00:24:36;37.50;;;20.07;;
20454;SDS011;10386;54.314;10.022;2022-08-01T00:27:03;36.03;;;19.87;;
20454;SDS011;10386;54.314;10.022;2022-08-01T00:29:30;34.83;;;20.27;;
20454;SDS011;10386;54.314;10.022;2022-08-01T00:32:17;36.23;;;19.67;;
20454;SDS011;10386;54.314;10.022;2022-08-01T00:34:43;34.60;;;20.37;;
20454;SDS011;10386;54.314;10.022;2022-08-01T00:37:10;38.87;;;20.60;;
20454;SDS011;10386;54.314;10.022;2022-08-01T00:39:41;37.37;;;20.10;;
20454;SDS011;10386;54.314;10.022;2022-08-01T00:42:09;43.43;;;20.60;;
20454;SDS011;10386;54.314;10.022;2022-08-01T00:44:36;41.07;;;21.03;;
20454;SDS011;10386;54.314;10.022;2022-08-01T00:47:04;40.47;;;21.93;;
20454;SDS011;10386;54.314;10.022;2022-08-01T00:49:31;40.87;;;22.00;;
20454;SDS011;10386;54.314;10.022;2022-08-01T00:51:59;41.83;;;22.37;;
20454;SDS011;10386;54.314;10.022;2022-08-01T00:54:26;50.37;;;22.90;;
20454;SDS011;10386;54.314;10.022;2022-08-01T00:56:54;52.47;;;23.73;;
20454;SDS011;10386;54.314;10.022;2022-08-01T00:59:21;49.80;;;24.63;;
20454;SDS011;10386;54.314;10.022;2022-08-01T01:01:51;61.17;;;25.33;;
20454;SDS011;10386;54.314;10.022;2022-08-01T01:04:19;56.97;;;25.53;;
20454;SDS011;10386;54.314;10.022;2022-08-01T01:14:56;54.03;;;26.43;;
20454;SDS011;10386;54.314;10.022;2022-08-01T01:17:39;54.07;;;25.00;;
20454;SDS011;10386;54.314;10.022;2022-08-01T01:20:17;55.07;;;25.67;;
20454;SDS011;10386;54.314;10.022;2022-08-01T01:31:17;59.00;;;24.97;;
20454;SDS011;10386;54.314;10.022;2022-08-01T01:33:47;56.30;;;24.70;;
20454;SDS011;10386;54.314;10.022;2022-08-01T01:36:16;54.23;;;24.00;;
20454;SDS011;10386;54.314;10.022;2022-08-01T01:38:45;64.80;;;25.60;;
20454;SDS011;10386;54.314;10.022;2022-08-01T01:41:15;57.40;;;24.43;;
20454;SDS011;10386;54.314;10.022;2022-08-01T01:43:45;54.63;;;24.93;;
20454;SDS011;10386;54.314;10.022;2022-08-01T01:46:15;54.73;;;22.87;;
20454;SDS011;10386;54.314;10.022;2022-08-01T01:48:45;51.80;;;23.23;;
20454;SDS011;10386;54.314;10.022;2022-08-01T01:51:13;60.40;;;24.77;;
20454;SDS011;10386;54.314;10.022;2022-08-01T01:53:44;56.73;;;23.43;;
20454;SDS011;10386;54.314;10.022;2022-08-01T01:56:12;62.43;;;23.60;;
20454;SDS011;10386;54.314;10.022;2022-08-01T01:58:42;55.40;;;23.90;;
20454;SDS011;10386;54.314;10.022;2022-08-01T02:01:10;56.93;;;23.03;;
20454;SDS011;10386;54.314;10.022;2022-08-01T02:03:40;55.07;;;23.33;;
20454;SDS011;10386;54.314;10.022;2022-08-01T02:06:11;52.53;;;23.90;;
20454;SDS011;10386;54.314;10.022;2022-08-01T02:08:41;49.30;;;22.17;;
20454;SDS011;10386;54.314;10.022;2022-08-01T02:11:09;55.23;;;22.60;;
20454;SDS011;10386;54.314;10.022;2022-08-01T02:13:56;55.73;;;22.03;;
20454;SDS011;10386;54.314;10.022;2022-08-01T02:16:25;50.03;;;21.97;;
20454;SDS011;10386;54.314;10.022;2022-08-01T02:18:54;52.60;;;22.37;;
20454;SDS011;10386;54.314;10.022;2022-08-01T02:21:28;45.53;;;21.73;;
20454;SDS011;10386;54.314;10.022;2022-08-01T02:24:01;49.47;;;21.23;;
20454;SDS011;10386;54.314;10.022;2022-08-01T02:26:34;54.63;;;22.37;;
20454;SDS011;10386;54.314;10.022;2022-08-01T02:29:06;43.93;;;20.20;;
20454;SDS011;10386;54.314;10.022;2022-08-01T02:31:38;53.00;;;21.17;;
20454;SDS011;10386;54.314;10.022;2022-08-01T02:34:09;51.77;;;22.83;;
20454;SDS011;10386;54.314;10.022;2022-08-01T02:36:39;46.90;;;21.87;;
20454;SDS011;10386;54.314;10.022;2022-08-01T02:39:08;49.60;;;21.93;;
20454;SDS011;10386;54.314;10.022;2022-08-01T02:41:38;48.10;;;22.20;;
20454;SDS011;10386;54.314;10.022;2022-08-01T02:44:09;47.53;;;21.47;;
20454;SDS011;10386;54.314;10.022;2022-08-01T02:46:43;46.73;;;21.77;;
20454;SDS011;10386;54.314;10.022;2022-08-01T02:49:15;51.33;;;24.20;;
20454;SDS011;10386;54.314;10.022;2022-08-01T02:51:45;50.93;;;22.00;;
20454;SDS011;10386;54.314;10.022;2022-08-01T02:54:14;51.87;;;23.30;;
20454;SDS011;10386;54.314;10.022;2022-08-01T02:56:43;52.50;;;21.63;;
20454;SDS011;10386;54.314;10.022;2022-08-01T02:59:14;48.20;;;22.97;;
20454;SDS011;10386;54.314;10.022;2022-08-01T03:01:47;55.77;;;23.87;;
20454;SDS011;10386;54.314;10.022;2022-08-01T03:04:15;56.47;;;23.00;;
20454;SDS011;10386;54.314;10.022;2022-08-01T03:06:44;51.63;;;22.63;;
20454;SDS011;10386;54.314;10.022;2022-08-01T03:09:13;53.07;;;23.47;;
20454;SDS011;10386;54.314;10.022;2022-08-01T03:11:42;51.77;;;22.23;;
20454;SDS011;10386;54.314;10.022;2022-08-01T03:14:11;46.80;;;21.10;;
20454;SDS011;10386;54.314;10.022;2022-08-01T03:16:40;41.37;;;20.00;;
20454;SDS011;10386;54.314;10.022;2022-08-01T03:19:09;47.27;;;20.57;;
20454;SDS011;10386;54.314;10.022;2022-08-01T03:21:38;33.50;;;18.20;;
20454;SDS011;10386;54.314;10.022;2022-08-01T03:24:07;39.70;;;18.57;;
20454;SDS011;10386;54.314;10.022;2022-08-01T03:26:36;36.90;;;19.13;;
20454;SDS011;10386;54.314;10.022;2022-08-01T03:29:06;32.30;;;17.67;;
20454;SDS011;10386;54.314;10.022;2022-08-01T03:31:37;32.60;;;17.37;;
20454;SDS011;10386;54.314;10.022;2022-08-01T03:34:05;36.93;;;18.63;;
20454;SDS011;10386;54.314;10.022;2022-08-01T03:36:33;31.80;;;16.60;;
20454;SDS011;10386;54.314;10.022;2022-08-01T03:39:05;26.03;;;15.80;;
20454;SDS011;10386;54.314;10.022;2022-08-01T03:41:37;31.17;;;15.63;;
20454;SDS011;10386;54.314;10.022;2022-08-01T03:44:07;34.57;;;16.47;;
20454;SDS011;10386;54.314;10.022;2022-08-01T03:46:50;23.10;;;14.67;;
20454;SDS011;10386;54.314;10.022;2022-08-01T03:49:42;30.30;;;15.23;;
20454;SDS011;10386;54.314;10.022;2022-08-01T03:52:11;27.90;;;13.77;;
20454;SDS011;10386;54.314;10.022;2022-08-01T03:54:40;23.00;;;13.63;;
20454;SDS011;10386;54.314;10.022;2022-08-01T03:57:12;22.27;;;13.60;;
20454;SDS011;10386;54.314;10.022;2022-08-01T04:00:00;25.13;;;12.30;;
20454;SDS011;10386;54.314;10.022;2022-08-01T04:02:28;21.73;;;11.03;;
20454;SDS011;10386;54.314;10.022;2022-08-01T04:04:55;17.67;;;10.67;;
20454;SDS011;10386;54.314;10.022;2022-08-01T04:07:23;20.73;;;10.90;;
20454;SDS011;10386;54.314;10.022;2022-08-01T04:09:51;17.33;;;10.77;;
20454;SDS011;10386;54.314;10.022;2022-08-01T04:12:18;18.23;;;10.70;;
20454;SDS011;10386;54.314;10.022;2022-08-01T04:14:45;12.43;;;8.70;;
20454;SDS011;10386;54.314;10.022;2022-08-01T04:17:12;17.37;;;10.17;;
20454;SDS011;10386;54.314;10.022;2022-08-01T04:19:39;18.20;;;10.23;;
20454;SDS011;10386;54.314;10.022;2022-08-01T04:22:06;18.03;;;10.60;;
20454;SDS011;10386;54.314;10.022;2022-08-01T04:24:34;20.00;;;11.20;;
20454;SDS011;10386;54.314;10.022;2022-08-01T04:27:06;21.60;;;11.10;;
20454;SDS011;10386;54.314;10.022;2022-08-01T04:29:36;15.23;;;9.73;;
20454;SDS011;10386;54.314;10.022;2022-08-01T04:32:05;17.53;;;10.57;;
20454;SDS011;10386;54.314;10.022;2022-08-01T04:34:36;21.03;;;9.93;;
20454;SDS011;10386;54.314;10.022;2022-08-01T04:37:07;15.23;;;9.90;;
20454;SDS011;10386;54.314;10.022;2022-08-01T04:39:38;18.53;;;10.90;;
20454;SDS011;10386;54.314;10.022;2022-08-01T04:42:16;20.70;;;10.23;;
20454;SDS011;10386;54.314;10.022;2022-08-01T04:44:51;19.30;;;11.17;;
20454;SDS011;10386;54.314;10.022;2022-08-01T04:47:18;16.70;;;11.60;;
20454;SDS011;10386;54.314;10.022;2022-08-01T04:49:45;22.97;;;11.40;;
20454;SDS011;10386;54.314;10.022;2022-08-01T04:52:14;17.90;;;11.33;;
20454;SDS011;10386;54.314;10.022;2022-08-01T04:54:49;21.40;;;11.47;;
20454;SDS011;10386;54.314;10.022;2022-08-01T04:57:16;20.07;;;11.10;;
20454;SDS011;10386;54.314;10.022;2022-08-01T04:59:43;18.53;;;10.73;;
20454;SDS011;10386;54.314;10.022;2022-08-01T05:02:11;19.53;;;10.60;;
20454;SDS011;10386;54.314;10.022;2022-08-01T05:04:43;18.93;;;11.67;;
20454;SDS011;10386;54.314;10.022;2022-08-01T05:07:11;21.20;;;10.47;;
20454;SDS011;10386;54.314;10.022;2022-08-01T05:09:39;15.87;;;10.90;;
20454;SDS011;10386;54.314;10.022;2022-08-01T05:12:12;14.73;;;10.07;;
20454;SDS011;10386;54.314;10.022;2022-08-01T05:14:39;19.53;;;10.87;;
20454;SDS011;10386;54.314;10.022;2022-08-01T05:17:07;17.53;;;10.43;;
20454;SDS011;10386;54.314;10.022;2022-08-01T05:19:35;20.00;;;10.67;;
20454;SDS011;10386;54.314;10.022;2022-08-01T05:22:04;19.67;;;10.87;;
20454;SDS011;10386;54.314;10.022;2022-08-01T05:24:37;16.13;;;11.07;;
20454;SDS011;10386;54.314;10.022;2022-08-01T05:27:05;21.07;;;10.47;;
20454;SDS011;10386;54.314;10.022;2022-08-01T05:29:36;19.33;;;10.57;;
20454;SDS011;10386;54.314;10.022;2022-08-01T05:32:09;18.50;;;10.13;;
20454;SDS011;10386;54.314;10.022;2022-08-01T05:34:36;18.33;;;10.43;;
20454;SDS011;10386;54.314;10.022;2022-08-01T05:37:03;19.80;;;9.83;;
20454;SDS011;10386;54.314;10.022;2022-08-01T05:39:30;23.27;;;11.00;;
20454;SDS011;10386;54.314;10.022;2022-08-01T05:41:57;19.93;;;9.77;;
20454;SDS011;10386;54.314;10.022;2022-08-01T05:44:23;22.23;;;9.47;;
20454;SDS011;10386;54.314;10.022;2022-08-01T05:46:51;15.60;;;9.87;;
20454;SDS011;10386;54.314;10.022;2022-08-01T05:49:18;20.63;;;10.13;;
20454;SDS011;10386;54.314;10.022;2022-08-01T05:51:45;18.10;;;9.17;;
20454;SDS011;10386;54.314;10.022;2022-08-01T05:54:11;15.77;;;9.37;;
20454;SDS011;10386;54.314;10.022;2022-08-01T05:56:38;21.47;;;10.33;;
20454;SDS011;10386;54.314;10.022;2022-08-01T05:59:05;16.37;;;9.03;;
20454;SDS011;10386;54.314;10.022;2022-08-01T06:01:32;16.43;;;8.10;;
20454;SDS011;10386;54.314;10.022;2022-08-01T06:03:58;17.40;;;8.30;;
20454;SDS011;10386;54.314;10.022;2022-08-01T06:06:25;14.17;;;7.70;;
20454;SDS011;10386;54.314;10.022;2022-08-01T06:08:53;16.50;;;7.37;;
20454;SDS011;10386;54.314;10.022;2022-08-01T06:11:20;10.50;;;7.83;;
20454;SDS011;10386;54.314;10.022;2022-08-01T06:13:47;9.67;;;7.23;;
20454;SDS011;10386;54.314;10.022;2022-08-01T06:16:14;9.80;;;6.17;;
20454;SDS011;10386;54.314;10.022;2022-08-01T06:18:42;10.27;;;5.27;;
20454;SDS011;10386;54.314;10.022;2022-08-01T06:21:09;5.30;;;4.80;;
20454;SDS011;10386;54.314;10.022;2022-08-01T06:23:36;9.63;;;4.70;;
20454;SDS011;10386;54.314;10.022;2022-08-01T06:26:03;5.63;;;4.07;;
20454;SDS011;10386;54.314;10.022;2022-08-01T06:28:30;4.90;;;3.90;;
20454;SDS011;10386;54.314;10.022;2022-08-01T06:30:57;6.77;;;3.67;;
20454;SDS011;10386;54.314;10.022;2022-08-01T06:33:25;7.03;;;4.07;;
20454;SDS011;10386;54.314;10.022;2022-08-01T06:35:53;11.43;;;4.03;;
20454;SDS011;10386;54.314;10.022;2022-08-01T06:38:20;6.47;;;4.03;;
20454;SDS011;10386;54.314;10.022;2022-08-01T06:40:47;5.10;;;3.13;;
20454;SDS011;10386;54.314;10.022;2022-08-01T06:43:14;11.13;;;4.17;;
20454;SDS011;10386;54.314;10.022;2022-08-01T06:45:41;8.53;;;4.63;;
20454;SDS011;10386;54.314;10.022;2022-08-01T06:48:08;11.30;;;4.40;;
20454;SDS011;10386;54.314;10.022;2022-08-01T06:50:35;10.37;;;4.83;;
20454;SDS011;10386;54.314;10.022;2022-08-01T06:53:02;10.33;;;5.47;;
20454;SDS011;10386;54.314;10.022;2022-08-01T06:55:29;9.67;;;4.80;;
20454;SDS011;10386;54.314;10.022;2022-08-01T06:57:56;12.47;;;5.63;;
20454;SDS011;10386;54.314;10.022;2022-08-01T07:00:24;12.93;;;6.00;;
20454;SDS011;10386;54.314;10.022;2022-08-01T07:02:52;9.33;;;5.50;;
20454;SDS011;10386;54.314;10.022;2022-08-01T07:05:20;14.30;;;5.67;;
20454;SDS011;10386;54.314;10.022;2022-08-01T07:07:48;10.37;;;4.73;;
20454;SDS011;10386;54.314;10.022;2022-08-01T07:10:15;12.47;;;5.60;;
20454;SDS011;10386;54.314;10.022;2022-08-01T07:12:43;11.30;;;4.80;;
20454;SDS011;10386;54.314;10.022;2022-08-01T07:15:10;12.17;;;5.20;;
20454;SDS011;10386;54.314;10.022;2022-08-01T07:17:38;18.67;;;5.87;;
20454;SDS011;10386;54.314;10.022;2022-08-01T07:20:09;17.70;;;6.30;;
20454;SDS011;10386;54.314;10.022;2022-08-01T07:22:39;12.77;;;5.23;;
20454;SDS011;10386;54.314;10.022;2022-08-01T07:25:06;25.07;;;5.93;;
20454;SDS011;10386;54.314;10.022;2022-08-01T07:27:34;12.93;;;5.73;;
20454;SDS011;10386;54.314;10.022;2022-08-01T07:30:02;17.93;;;5.20;;
20454;SDS011;10386;54.314;10.022;2022-08-01T07:32:30;19.57;;;4.73;;
20454;SDS011;10386;54.314;10.022;2022-08-01T07:34:57;9.20;;;4.47;;
20454;SDS011;10386;54.314;10.022;2022-08-01T07:37:25;11.00;;;3.10;;
20454;SDS011;10386;54.314;10.022;2022-08-01T07:40:12;6.40;;;3.10;;
20454;SDS011;10386;54.314;10.022;2022-08-01T07:42:39;8.40;;;3.13;;
20454;SDS011;10386;54.314;10.022;2022-08-01T07:45:10;7.03;;;3.20;;
20454;SDS011;10386;54.314;10.022;2022-08-01T07:47:37;11.30;;;3.10;;
20454;SDS011;10386;54.314;10.022;2022-08-01T07:50:04;8.17;;;2.53;;
20454;SDS011;10386;54.314;10.022;2022-08-01T07:52:32;6.77;;;2.67;;
20454;SDS011;10386;54.314;10.022;2022-08-01T07:54:59;16.50;;;2.97;;
20454;SDS011;10386;54.314;10.022;2022-08-01T07:57:26;9.23;;;2.60;;
20454;SDS011;10386;54.314;10.022;2022-08-01T07:59:52;12.93;;;3.00;;
20454;SDS011;10386;54.314;10.022;2022-08-01T08:02:19;11.27;;;3.40;;
20454;SDS011;10386;54.314;10.022;2022-08-01T08:04:46;11.07;;;2.57;;
20454;SDS011;10386;54.314;10.022;2022-08-01T08:07:15;13.37;;;2.77;;
20454;SDS011;10386;54.314;10.022;2022-08-01T08:09:42;11.17;;;2.73;;
20454;SDS011;10386;54.314;10.022;2022-08-01T08:12:09;7.77;;;2.80;;
20454;SDS011;10386;54.314;10.022;2022-08-01T08:14:36;18.43;;;3.57;;
20454;SDS011;10386;54.314;10.022;2022-08-01T08:17:04;17.27;;;2.83;;
20454;SDS011;10386;54.314;10.022;2022-08-01T08:19:32;14.00;;;2.88;;
20454;SDS011;10386;54.314;10.022;2022-08-01T08:22:04;11.30;;;2.73;;
20454;SDS011;10386;54.314;10.022;2022-08-01T08:24:33;16.27;;;2.93;;
20454;SDS011;10386;54.314;10.022;2022-08-01T08:27:01;14.33;;;2.77;;
20454;SDS011;10386;54.314;10.022;2022-08-01T08:29:29;11.30;;;3.17;;
20454;SDS011;10386;54.314;10.022;2022-08-01T08:31:59;13.87;;;2.80;;
20454;SDS011;10386;54.314;10.022;2022-08-01T08:34:27;11.43;;;2.43;;
20454;SDS011;10386;54.314;10.022;2022-08-01T08:36:55;9.60;;;2.53;;
20454;SDS011;10386;54.314;10.022;2022-08-01T08:39:24;14.73;;;2.73;;
20454;SDS011;10386;54.314;10.022;2022-08-01T08:41:51;7.23;;;2.53;;
20454;SDS011;10386;54.314;10.022;2022-08-01T08:44:18;16.35;;;3.00;;
20454;SDS011;10386;54.314;10.022;2022-08-01T08:46:47;12.93;;;2.55;;
20454;SDS011;10386;54.314;10.022;2022-08-01T08:49:22;15.40;;;2.83;;
20454;SDS011;10386;54.314;10.022;2022-08-01T08:52:01;13.57;;;3.08;;
20454;SDS011;10386;54.314;10.022;2022-08-01T08:54:30;11.88;;;2.70;;
20454;SDS011;10386;54.314;10.022;2022-08-01T08:56:58;12.90;;;2.67;;
20454;SDS011;10386;54.314;10.022;2022-08-01T08:59:27;15.60;;;2.80;;
20454;SDS011;10386;54.314;10.022;2022-08-01T09:01:55;12.93;;;3.28;;
20454;SDS011;10386;54.314;10.022;2022-08-01T09:04:23;13.55;;;2.95;;
20454;SDS011;10386;54.314;10.022;2022-08-01T09:06:52;10.57;;;2.47;;
20454;SDS011;10386;54.314;10.022;2022-08-01T09:09:19;10.98;;;2.60;;
20454;SDS011;10386;54.314;10.022;2022-08-01T09:11:46;11.68;;;2.35;;
20454;SDS011;10386;54.314;10.022;2022-08-01T09:14:23;9.93;;;2.33;;
20454;SDS011;10386;54.314;10.022;2022-08-01T09:17:26;14.05;;;3.03;;
20454;SDS011;10386;54.314;10.022;2022-08-01T09:19:47;12.55;;;3.00;;
20454;SDS011;10386;54.314;10.022;2022-08-01T09:22:23;15.45;;;3.05;;
20454;SDS011;10386;54.314;10.022;2022-08-01T09:27:26;10.43;;;2.55;;
20454;SDS011;10386;54.314;10.022;2022-08-01T09:29:53;10.77;;;2.60;;
20454;SDS011;10386;54.314;10.022;2022-08-01T09:32:27;9.65;;;2.25;;
20454;SDS011;10386;54.314;10.022;2022-08-01T09:38:13;10.98;;;1.98;;
20454;SDS011;10386;54.314;10.022;2022-08-01T09:40:48;10.80;;;2.42;;
20454;SDS011;10386;54.314;10.022;2022-08-01T09:43:15;14.95;;;2.65;;
20454;SDS011;10386;54.314;10.022;2022-08-01T09:45:44;7.13;;;2.33;;
20454;SDS011;10386;54.314;10.022;2022-08-01T09:48:19;8.55;;;2.00;;
20454;SDS011;10386;54.314;10.022;2022-08-01T09:50:53;5.57;;;1.92;;
20454;SDS011;10386;54.314;10.022;2022-08-01T09:53:26;12.73;;;2.00;;
20454;SDS011;10386;54.314;10.022;2022-08-01T09:56:00;9.88;;;2.55;;
20454;SDS011;10386;54.314;10.022;2022-08-01T09:58:51;12.23;;;2.28;;
20454;SDS011;10386;54.314;10.022;2022-08-01T10:01:25;6.38;;;1.90;;
20454;SDS011;10386;54.314;10.022;2022-08-01T10:04:08;5.72;;;1.80;;
20454;SDS011;10386;54.314;10.022;2022-08-01T10:06:41;10.05;;;2.08;;
20454;SDS011;10386;54.314;10.022;2022-08-01T10:09:12;10.50;;;2.03;;
20454;SDS011;10386;54.314;10.022;2022-08-01T10:11:41;4.63;;;1.98;;
20454;SDS011;10386;54.314;10.022;2022-08-01T10:14:10;6.80;;;1.70;;
20454;SDS011;10386;54.314;10.022;2022-08-01T10:16:43;3.95;;;2.03;;
20454;SDS011;10386;54.314;10.022;2022-08-01T10:19:20;8.77;;;1.90;;
20454;SDS011;10386;54.314;10.022;2022-08-01T10:21:53;5.55;;;1.88;;
20454;SDS011;10386;54.314;10.022;2022-08-01T10:24:24;9.45;;;2.10;;
20454;SDS011;10386;54.314;10.022;2022-08-01T10:26:58;9.63;;;2.38;;
20454;SDS011;10386;54.314;10.022;2022-08-01T10:29:40;5.90;;;1.70;;
20454;SDS011;10386;54.314;10.022;2022-08-01T10:32:25;5.32;;;2.55;;
20454;SDS011;10386;54.314;10.022;2022-08-01T10:34:54;6.65;;;1.80;;
20454;SDS011;10386;54.314;10.022;2022-08-01T10:37:21;9.48;;;2.15;;
20454;SDS011;10386;54.314;10.022;2022-08-01T10:39:53;8.60;;;2.38;;
20454;SDS011;10386;54.314;10.022;2022-08-01T10:42:41;8.13;;;1.77;;
20454;SDS011;10386;54.314;10.022;2022-08-01T10:45:10;5.07;;;1.80;;
20454;SDS011;10386;54.314;10.022;2022-08-01T10:50:29;6.80;;;1.75;;
20454;SDS011;10386;54.314;10.022;2022-08-01T10:53:03;7.05;;;1.85;;
20454;SDS011;10386;54.314;10.022;2022-08-01T10:58:21;7.25;;;2.00;;
20454;SDS011;10386;54.314;10.022;2022-08-01T11:09:00;8.30;;;2.00;;
20454;SDS011;10386;54.314;10.022;2022-08-01T11:11:31;6.38;;;1.88;;
20454;SDS011;10386;54.314;10.022;2022-08-01T11:14:04;4.90;;;1.38;;
20454;SDS011;10386;54.314;10.022;2022-08-01T11:16:36;10.45;;;2.10;;
20454;SDS011;10386;54.314;10.022;2022-08-01T11:19:06;5.63;;;1.75;;
20454;SDS011;10386;54.314;10.022;2022-08-01T11:35:31;6.68;;;1.52;;
20454;SDS011;10386;54.314;10.022;2022-08-01T11:38:22;9.90;;;2.42;;
20454;SDS011;10386;54.314;10.022;2022-08-01T11:41:09;11.88;;;1.83;;
20454;SDS011;10386;54.314;10.022;2022-08-01T11:52:16;8.07;;;2.25;;
20454;SDS011;10386;54.314;10.022;2022-08-01T11:54:53;8.63;;;1.80;;
20454;SDS011;10386;54.314;10.022;2022-08-01T11:57:29;9.18;;;1.83;;
20454;SDS011;10386;54.314;10.022;2022-08-01T12:00:03;13.38;;;2.10;;
20454;SDS011;10386;54.314;10.022;2022-08-01T12:02:40;10.73;;;1.80;;
20454;SDS011;10386;54.314;10.022;2022-08-01T12:05:08;10.70;;;2.50;;
20454;SDS011;10386;54.314;10.022;2022-08-01T12:07:40;6.28;;;1.60;;
20454;SDS011;10386;54.314;10.022;2022-08-01T12:12:43;4.00;;;1.55;;
20454;SDS011;10386;54.314;10.022;2022-08-01T12:15:11;5.45;;;1.88;;
20454;SDS011;10386;54.314;10.022;2022-08-01T12:17:39;9.07;;;1.90;;
20454;SDS011;10386;54.314;10.022;2022-08-01T12:20:23;10.18;;;1.80;;
20454;SDS011;10386;54.314;10.022;2022-08-01T12:22:54;4.97;;;1.55;;
20454;SDS011;10386;54.314;10.022;2022-08-01T12:25:22;6.47;;;2.08;;
20454;SDS011;10386;54.314;10.022;2022-08-01T12:27:49;4.30;;;1.80;;
20454;SDS011;10386;54.314;10.022;2022-08-01T12:30:21;4.78;;;1.70;;
20454;SDS011;10386;54.314;10.022;2022-08-01T12:32:50;9.20;;;2.38;;
20454;SDS011;10386;54.314;10.022;2022-08-01T12:35:19;6.38;;;1.60;;
20454;SDS011;10386;54.314;10.022;2022-08-01T12:37:54;4.18;;;1.48;;
20454;SDS011;10386;54.314;10.022;2022-08-01T12:40:34;6.53;;;1.63;;
20454;SDS011;10386;54.314;10.022;2022-08-01T12:43:06;9.38;;;1.80;;
20454;SDS011;10386;54.314;10.022;2022-08-01T12:45:42;2.47;;;1.58;;
20454;SDS011;10386;54.314;10.022;2022-08-01T12:48:22;5.78;;;1.60;;
20454;SDS011;10386;54.314;10.022;2022-08-01T12:50:51;8.15;;;1.95;;
20454;SDS011;10386;54.314;10.022;2022-08-01T12:53:19;5.15;;;1.65;;
20454;SDS011;10386;54.314;10.022;2022-08-01T12:55:48;5.82;;;1.55;;
20454;SDS011;10386;54.314;10.022;2022-08-01T12:58:31;8.20;;;2.05;;
20454;SDS011;10386;54.314;10.022;2022-08-01T13:01:09;4.45;;;1.58;;
20454;SDS011;10386;54.314;10.022;2022-08-01T13:03:38;7.40;;;1.70;;
20454;SDS011;10386;54.314;10.022;2022-08-01T13:06:12;6.75;;;1.90;;
20454;SDS011;10386;54.314;10.022;2022-08-01T13:08:42;5.18;;;1.70;;
20454;SDS011;10386;54.314;10.022;2022-08-01T13:11:09;4.15;;;1.83;;
20454;SDS011;10386;54.314;10.022;2022-08-01T13:13:44;8.35;;;2.00;;
20454;SDS011;10386;54.314;10.022;2022-08-01T13:16:14;5.53;;;1.65;;
20454;SDS011;10386;54.314;10.022;2022-08-01T13:19:02;4.88;;;1.58;;
20454;SDS011;10386;54.314;10.022;2022-08-01T13:21:29;8.90;;;1.90;;
20454;SDS011;10386;54.314;10.022;2022-08-01T13:24:22;4.03;;;1.58;;
20454;SDS011;10386;54.314;10.022;2022-08-01T13:26:51;6.32;;;1.80;;
20454;SDS011;10386;54.314;10.022;2022-08-01T13:29:28;6.22;;;1.65;;
20454;SDS011;10386;54.314;10.022;2022-08-01T13:31:55;8.68;;;1.85;;
20454;SDS011;10386;54.314;10.022;2022-08-01T13:34:32;9.10;;;1.92;;
20454;SDS011;10386;54.314;10.022;2022-08-01T13:37:00;9.35;;;2.33;;
20454;SDS011;10386;54.314;10.022;2022-08-01T13:39:30;5.55;;;1.75;;
20454;SDS011;10386;54.314;10.022;2022-08-01T13:42:07;8.02;;;2.53;;
20454;SDS011;10386;54.314;10.022;2022-08-01T13:44:35;4.97;;;2.00;;
20454;SDS011;10386;54.314;10.022;2022-08-01T13:47:05;6.20;;;1.80;;
20454;SDS011;10386;54.314;10.022;2022-08-01T13:49:41;4.82;;;1.70;;
20454;SDS011;10386;54.314;10.022;2022-08-01T13:52:08;8.35;;;2.00;;
20454;SDS011;10386;54.314;10.022;2022-08-01T13:54:35;5.90;;;2.08;;
20454;SDS011;10386;54.314;10.022;2022-08-01T13:57:02;5.03;;;1.75;;
20454;SDS011;10386;54.314;10.022;2022-08-01T13:59:29;6.32;;;1.90;;
20454;SDS011;10386;54.314;10.022;2022-08-01T14:01:56;7.63;;;1.92;;
20454;SDS011;10386;54.314;10.022;2022-08-01T14:04:23;11.10;;;2.42;;
20454;SDS011;10386;54.314;10.022;2022-08-01T14:06:50;7.50;;;2.22;;
20454;SDS011;10386;54.314;10.022;2022-08-01T14:09:17;6.85;;;1.98;;
20454;SDS011;10386;54.314;10.022;2022-08-01T14:11:49;7.30;;;2.03;;
20454;SDS011;10386;54.314;10.022;2022-08-01T14:14:17;4.05;;;2.00;;
20454;SDS011;10386;54.314;10.022;2022-08-01T14:16:43;6.60;;;2.00;;
20454;SDS011;10386;54.314;10.022;2022-08-01T14:19:13;7.40;;;2.22;;
20454;SDS011;10386;54.314;10.022;2022-08-01T14:21:44;8.88;;;2.10;;
20454;SDS011;10386;54.314;10.022;2022-08-01T14:24:11;8.60;;;1.80;;
20454;SDS011;10386;54.314;10.022;2022-08-01T14:26:38;8.05;;;2.10;;
20454;SDS011;10386;54.314;10.022;2022-08-01T14:29:04;9.25;;;2.35;;
20454;SDS011;10386;54.314;10.022;2022-08-01T14:31:31;6.53;;;1.90;;
20454;SDS011;10386;54.314;10.022;2022-08-01T14:34:00;5.47;;;2.05;;
20454;SDS011;10386;54.314;10.022;2022-08-01T14:36:26;5.78;;;2.15;;
20454;SDS011;10386;54.314;10.022;2022-08-01T14:38:57;6.75;;;1.80;;
20454;SDS011;10386;54.314;10.022;2022-08-01T14:41:26;6.95;;;2.72;;
20454;SDS011;10386;54.314;10.022;2022-08-01T14:43:56;6.00;;;2.30;;
20454;SDS011;10386;54.314;10.022;2022-08-01T14:46:22;7.05;;;1.92;;
20454;SDS011;10386;54.314;10.022;2022-08-01T14:48:49;12.63;;;2.00;;
20454;SDS011;10386;54.314;10.022;2022-08-01T14:51:16;6.07;;;1.95;;
20454;SDS011;10386;54.314;10.022;2022-08-01T14:53:43;4.60;;;2.03;;
20454;SDS011;10386;54.314;10.022;2022-08-01T14:56:16;6.22;;;1.90;;
20454;SDS011;10386;54.314;10.022;2022-08-01T14:58:43;7.43;;;1.65;;
20454;SDS011;10386;54.314;10.022;2022-08-01T15:01:10;6.38;;;1.95;;
20454;SDS011;10386;54.314;10.022;2022-08-01T15:03:37;8.20;;;2.45;;
20454;SDS011;10386;54.314;10.022;2022-08-01T15:06:04;11.00;;;2.25;;
20454;SDS011;10386;54.314;10.022;2022-08-01T15:08:32;7.35;;;1.92;;
20454;SDS011;10386;54.314;10.022;2022-08-01T15:10:59;10.48;;;2.17;;
20454;SDS011;10386;54.314;10.022;2022-08-01T15:13:27;8.68;;;1.90;;
20454;SDS011;10386;54.314;10.022;2022-08-01T15:15:54;8.30;;;2.08;;
20454;SDS011;10386;54.314;10.022;2022-08-01T15:18:26;4.57;;;1.50;;
20454;SDS011;10386;54.314;10.022;2022-08-01T15:20:54;5.95;;;1.88;;
20454;SDS011;10386;54.314;10.022;2022-08-01T15:23:21;4.35;;;1.50;;
20454;SDS011;10386;54.314;10.022;2022-08-01T15:25:48;6.03;;;1.75;;
20454;SDS011;10386;54.314;10.022;2022-08-01T15:28:16;6.75;;;1.80;;
20454;SDS011;10386;54.314;10.022;2022-08-01T15:30:42;7.80;;;1.77;;
20454;SDS011;10386;54.314;10.022;2022-08-01T15:33:09;14.90;;;2.65;;
20454;SDS011;10386;54.314;10.022;2022-08-01T15:35:36;8.30;;;1.80;;
20454;SDS011;10386;54.314;10.022;2022-08-01T15:38:03;7.68;;;1.75;;